Time;durP1;ratioP1;P1;durP2;ratioP2;P2;SDS_P1;SDS_P2;PMS_P1;PMS_P2;Temp;Humidity;BMP_temperature;BMP_pressure;BME280_temperature;BME280_humidity;BME280_pressure;Samples;Min_cycle;Max_cycle;Signal;HPM_P1;HPM_P2
2023/03/17 00:00:47;;;;;;;0.50;0.50;;;7.20;99.90;;;;;;4961614;28;20077;-81
2023/03/17 00:03:21;;;;;;;0.70;0.70;;;7.20;99.90;;;;;;4964539;28;20034;-83
2023/03/17 00:05:47;;;;;;;0.60;0.60;;;7.20;99.90;;;;;;4960518;28;20092;-82
2023/03/17 00:08:28;;;;;;;0.43;0.43;;;7.30;99.90;;;;;;4955756;28;20082;-80
2023/03/17 00:10:55;;;;;;;0.60;0.60;;;7.30;99.90;;;;;;4958297;28;20104;-82
2023/03/17 00:13:20;;;;;;;0.50;0.50;;;7.30;99.90;;;;;;4965004;28;20042;-81
2023/03/17 00:15:52;;;;;;;0.70;0.70;;;7.30;99.90;;;;;;4960489;28;20082;-82
2023/03/17 00:18:19;;;;;;;0.50;0.50;;;7.30;99.90;;;;;;4964794;28;20563;-82
2023/03/17 00:20:46;;;;;;;0.75;0.75;;;7.30;99.90;;;;;;4928637;28;20085;-82
2023/03/17 00:23:18;;;;;;;0.80;0.80;;;7.30;99.90;;;;;;4964653;28;20039;-81
2023/03/17 00:25:45;;;;;;;0.60;0.60;;;7.40;99.90;;;;;;4968934;28;20050;-82
2023/03/17 00:28:16;;;;;;;0.80;0.80;;;7.30;99.90;;;;;;4963249;28;20090;-82
2023/03/17 00:30:42;;;;;;;0.50;0.50;;;7.40;99.90;;;;;;4965813;28;20056;-82
2023/03/17 00:33:09;;;;;;;0.47;0.47;;;7.40;99.90;;;;;;4961008;28;20407;-82
2023/03/17 00:35:37;;;;;;;1.05;1.05;;;7.40;99.90;;;;;;4961420;28;20043;-83
2023/03/17 00:38:03;;;;;;;0.60;0.60;;;7.40;99.90;;;;;;4943762;28;20402;-82
2023/03/17 00:40:29;;;;;;;;;;;7.40;99.90;;;;;;4947732;28;20050;-82
2023/03/17 00:42:57;;;;;;;0.63;0.63;;;7.40;99.90;;;;;;4954262;28;19922;-82
2023/03/17 00:45:24;;;;;;;0.75;0.60;;;7.50;99.90;;;;;;4982782;28;20305;-83
2023/03/17 00:47:52;;;;;;;0.40;0.40;;;7.50;99.90;;;;;;4968495;28;20047;-82
2023/03/17 00:50:24;;;;;;;0.47;0.47;;;7.50;99.90;;;;;;4963189;28;20047;-82
2023/03/17 00:52:52;;;;;;;0.38;0.38;;;7.50;99.90;;;;;;4969739;28;20165;-82
2023/03/17 00:55:20;;;;;;;0.57;0.57;;;7.50;99.90;;;;;;4954777;28;20473;-82
2023/03/17 00:57:47;;;;;;;0.57;0.57;;;7.40;99.90;;;;;;4986594;28;20264;-82
2023/03/17 01:00:21;;;;;;;0.88;0.88;;;7.40;99.90;;;;;;4963212;28;20047;-82
2023/03/17 01:02:48;;;;;;;17.17;1.85;;;7.40;99.90;;;;;;4960623;28;20403;-82
2023/03/17 01:05:13;;;;;;;;;;;7.40;99.90;;;;;;4949800;28;20058;-82
2023/03/17 01:07:40;;;;;;;0.50;0.50;;;7.40;99.90;;;;;;4952451;28;20376;-83
2023/03/17 01:10:17;;;;;;;0.82;0.82;;;7.40;99.90;;;;;;4961026;28;20058;-82
2023/03/17 01:12:44;;;;;;;1.27;1.27;;;7.50;99.90;;;;;;4963666;28;20054;-82
2023/03/17 01:15:12;;;;;;;0.40;0.40;;;8.00;99.90;;;;;;4968991;28;20047;-82
2023/03/17 01:17:38;;;;;;;0.40;0.40;;;7.50;99.90;;;;;;4963225;28;20125;-82
2023/03/17 01:20:06;;;;;;;0.40;0.40;;;7.50;99.90;;;;;;4964188;28;20567;-82
2023/03/17 01:22:32;;;;;;;0.50;0.50;;;7.50;99.90;;;;;;4946062;28;20404;-82
2023/03/17 01:24:57;;;;;;;0.45;0.45;;;7.50;99.90;;;;;;4939206;28;20104;-83
2023/03/17 01:27:24;;;;;;;0.50;0.50;;;7.60;99.90;;;;;;4963273;28;20047;-82
2023/03/17 01:29:54;;;;;;;0.50;0.50;;;7.60;99.90;;;;;;4933442;28;20030;-83
2023/03/17 01:32:21;;;;;;;0.50;0.50;;;7.60;99.90;;;;;;4959230;28;20108;-82
2023/03/17 01:34:46;;;;;;;0.98;0.60;;;7.60;99.90;;;;;;4957160;28;20051;-82
2023/03/17 01:37:13;;;;;;;0.50;0.50;;;7.50;99.90;;;;;;4965158;28;20038;-82
2023/03/17 01:39:39;;;;;;;1.05;1.05;;;7.50;99.90;;;;;;4962045;28;20065;-82
2023/03/17 01:42:06;;;;;;;0.80;0.80;;;7.50;99.90;;;;;;4959591;28;20100;-82
2023/03/17 01:44:31;;;;;;;;;;;7.50;99.90;;;;;;4989013;28;20635;-81
2023/03/17 01:46:57;;;;;;;0.40;0.40;;;7.50;99.90;;;;;;4964065;28;19926;-82
2023/03/17 01:49:29;;;;;;;0.52;0.52;;;7.50;99.90;;;;;;4972186;28;20047;-82
2023/03/17 01:52:05;;;;;;;0.40;0.40;;;7.50;99.90;;;;;;4965189;28;20191;-82
2023/03/17 01:54:42;;;;;;;0.60;0.60;;;7.50;99.90;;;;;;4963938;28;20132;-82
2023/03/17 01:57:23;;;;;;;0.50;0.50;;;7.50;99.90;;;;;;4962637;28;20090;-82
2023/03/17 01:59:54;;;;;;;0.43;0.43;;;7.50;99.90;;;;;;4970200;28;20556;-83
2023/03/17 02:02:27;;;;;;;0.55;0.55;;;7.50;99.90;;;;;;4960881;28;20121;-82
2023/03/17 02:04:55;;;;;;;0.50;0.50;;;7.50;99.90;;;;;;4949128;28;20078;-81
2023/03/17 02:07:23;;;;;;;0.40;0.40;;;7.50;99.90;;;;;;4946127;28;20059;-82
2023/03/17 02:09:51;;;;;;;0.32;0.32;;;7.50;99.90;;;;;;4960945;28;20074;-82
2023/03/17 02:12:17;;;;;;;0.40;0.40;;;7.40;99.90;;;;;;4971670;28;20053;-81
2023/03/17 02:14:43;;;;;;;0.57;0.57;;;7.40;99.90;;;;;;4962806;28;20042;-81
2023/03/17 02:17:09;;;;;;;0.57;0.57;;;7.40;99.90;;;;;;4964354;28;20043;-81
2023/03/17 02:19:34;;;;;;;0.40;0.40;;;7.40;99.90;;;;;;4959880;28;20108;-81
2023/03/17 02:22:01;;;;;;;0.50;0.50;;;7.40;99.90;;;;;;4961713;28;20537;-81
2023/03/17 02:24:47;;;;;;;0.32;0.32;;;7.40;99.90;;;;;;4959195;28;20054;-81
2023/03/17 02:27:17;;;;;;;1.77;1.77;;;7.30;99.90;;;;;;4963222;28;20047;-81
2023/03/17 02:29:45;;;;;;;0.60;0.60;;;7.30;99.90;;;;;;4961382;28;20051;-82
2023/03/17 02:32:13;;;;;;;0.50;0.50;;;7.40;99.90;;;;;;4959726;28;20455;-82
2023/03/17 02:34:38;;;;;;;0.40;0.40;;;7.30;99.90;;;;;;4961031;28;20042;-82
2023/03/17 02:37:06;;;;;;;0.55;0.55;;;7.30;99.90;;;;;;4946276;28;20385;-82
2023/03/17 02:39:32;;;;;;;0.60;0.60;;;7.30;99.90;;;;;;4945473;28;20078;-82
2023/03/17 02:41:58;;;;;;;;;;;7.30;99.90;;;;;;4959941;28;20538;-81
2023/03/17 02:44:24;;;;;;;0.40;0.40;;;7.30;99.90;;;;;;4944453;28;19918;-82
2023/03/17 02:46:49;;;;;;;0.40;0.40;;;7.30;99.90;;;;;;5027045;28;20092;-82
2023/03/17 02:49:16;;;;;;;0.60;0.60;;;7.30;99.90;;;;;;4964804;28;20081;-82
2023/03/17 02:51:42;;;;;;;0.68;0.68;;;7.30;99.90;;;;;;4958497;28;20051;-82
2023/03/17 02:54:07;;;;;;;0.63;0.63;;;7.30;99.90;;;;;;4945365;28;20552;-81
2023/03/17 02:56:33;;;;;;;0.52;0.52;;;7.30;99.90;;;;;;4972094;28;20080;-80
2023/03/17 02:58:59;;;;;;;0.50;0.50;;;7.20;99.90;;;;;;4966018;28;20042;-81
2023/03/17 03:01:25;;;;;;;1.40;1.40;;;7.20;99.90;;;;;;4963114;28;20040;-80
2023/03/17 03:03:51;;;;;;;0.65;0.65;;;7.20;99.90;;;;;;4965403;28;20051;-80
2023/03/17 03:06:17;;;;;;;0.77;0.77;;;7.20;99.90;;;;;;4964634;28;20539;-81
2023/03/17 03:08:43;;;;;;;0.40;0.40;;;7.20;99.90;;;;;;4965048;28;20051;-80
2023/03/17 03:11:09;;;;;;;0.50;0.50;;;7.20;99.90;;;;;;4965827;28;20057;-81
2023/03/17 03:13:36;;;;;;;0.70;0.70;;;7.20;99.90;;;;;;4966947;28;20046;-79
2023/03/17 03:16:02;;;;;;;0.52;0.52;;;7.10;99.90;;;;;;4966587;28;20117;-80
2023/03/17 03:18:28;;;;;;;0.65;0.65;;;7.10;99.90;;;;;;4949569;28;20415;-81
2023/03/17 03:20:53;;;;;;;0.50;0.50;;;7.00;99.90;;;;;;4934330;28;20042;-80
2023/03/17 03:23:19;;;;;;;0.60;0.57;;;7.00;99.90;;;;;;4949516;28;20034;-81
2023/03/17 03:25:45;;;;;;;0.50;0.50;;;7.00;99.90;;;;;;4945421;28;20039;-80
2023/03/17 03:28:11;;;;;;;0.50;0.50;;;6.90;99.90;;;;;;4962911;28;20109;-81
2023/03/17 03:30:37;;;;;;;0.38;0.38;;;7.00;99.90;;;;;;4964166;28;20049;-81
2023/03/17 03:33:03;;;;;;;;;;;6.90;99.90;;;;;;4934378;28;20043;-81
2023/03/17 03:35:29;;;;;;;0.47;0.47;;;6.90;99.90;;;;;;4964517;28;20707;-82
2023/03/17 03:37:56;;;;;;;0.82;0.70;;;6.90;99.90;;;;;;4965287;28;20073;-82
2023/03/17 03:40:25;;;;;;;0.77;0.77;;;6.90;99.90;;;;;;4965129;28;20066;-82
2023/03/17 03:42:51;;;;;;;0.40;0.40;;;6.90;99.90;;;;;;4967621;28;20070;-81
2023/03/17 03:45:23;;;;;;;0.70;0.70;;;6.90;99.90;;;;;;4964951;28;20105;-82
2023/03/17 03:47:49;;;;;;;0.50;0.50;;;6.90;99.90;;;;;;4960791;28;20043;-82
2023/03/17 03:50:15;;;;;;;0.47;0.47;;;6.90;99.90;;;;;;5033426;28;20104;-81
2023/03/17 03:52:41;;;;;;;0.73;0.73;;;6.90;99.90;;;;;;4965217;28;20069;-81
2023/03/17 03:55:07;;;;;;;0.40;0.40;;;7.00;99.90;;;;;;4950548;28;20054;-80
2023/03/17 03:57:33;;;;;;;0.60;0.60;;;7.00;99.90;;;;;;4964879;28;20046;-79
2023/03/17 03:59:59;;;;;;;0.63;0.63;;;7.00;99.90;;;;;;4964963;28;20123;-82
2023/03/17 04:02:25;;;;;;;0.38;0.38;;;7.00;99.90;;;;;;4950624;28;20047;-81
2023/03/17 04:04:52;;;;;;;0.40;0.40;;;6.90;99.90;;;;;;4934601;28;20093;-80
2023/03/17 04:07:20;;;;;;;0.57;0.57;;;6.90;99.90;;;;;;4963931;28;20059;-80
2023/03/17 04:09:48;;;;;;;0.52;0.52;;;6.90;99.90;;;;;;4966486;28;20066;-80
2023/03/17 04:12:14;;;;;;;0.50;0.50;;;6.90;99.90;;;;;;5039635;28;20042;-80
2023/03/17 04:14:41;;;;;;;0.60;0.60;;;6.90;99.90;;;;;;4952508;28;20054;-82
2023/03/17 04:17:07;;;;;;;0.60;0.60;;;6.90;99.90;;;;;;5028051;28;20115;-81
2023/03/17 04:19:33;;;;;;;0.50;0.50;;;6.90;99.90;;;;;;4963018;28;20530;-80
2023/03/17 04:22:00;;;;;;;0.38;0.38;;;6.90;99.90;;;;;;4958117;28;20074;-81
2023/03/17 04:24:26;;;;;;;0.30;0.30;;;7.00;99.90;;;;;;4964427;28;20039;-80
2023/03/17 04:26:52;;;;;;;0.65;0.65;;;7.00;99.90;;;;;;4934954;28;20047;-81
2023/03/17 04:29:18;;;;;;;0.50;0.50;;;6.90;99.90;;;;;;4951637;28;20420;-81
2023/03/17 04:31:44;;;;;;;;;;;7.00;99.90;;;;;;4956953;28;20266;-82
2023/03/17 04:34:15;;;;;;;0.50;0.50;;;6.90;99.90;;;;;;4960909;28;19929;-81
2023/03/17 04:36:41;;;;;;;0.43;0.43;;;6.90;99.90;;;;;;4947799;28;20710;-82
2023/03/17 04:39:07;;;;;;;0.60;0.60;;;6.90;99.90;;;;;;4964018;28;20054;-82
2023/03/17 04:41:33;;;;;;;0.90;0.90;;;6.80;99.90;;;;;;4965750;28;20058;-82
2023/03/17 04:43:59;;;;;;;0.75;0.75;;;6.90;99.90;;;;;;4964809;28;20046;-81
2023/03/17 04:46:25;;;;;;;0.60;0.60;;;6.70;99.90;;;;;;4950833;28;20054;-82
2023/03/17 04:48:51;;;;;;;0.70;0.70;;;6.70;99.90;;;;;;4944852;28;20038;-82
2023/03/17 04:51:17;;;;;;;0.52;0.52;;;6.60;99.90;;;;;;4963711;28;20480;-80
2023/03/17 04:53:43;;;;;;;0.75;0.75;;;6.50;99.90;;;;;;4963881;28;20180;-80
2023/03/17 04:56:09;;;;;;;0.50;0.50;;;6.50;99.90;;;;;;4949041;28;20038;-79
2023/03/17 04:58:35;;;;;;;;;;;6.50;99.90;;;;;;4965482;28;20561;-80
2023/03/17 05:01:02;;;;;;;0.60;0.60;;;6.50;99.90;;;;;;4962157;28;19930;-81
2023/03/17 05:03:29;;;;;;;0.50;0.50;;;6.50;99.90;;;;;;4950179;28;20038;-82
2023/03/17 05:05:59;;;;;;;0.73;0.73;;;6.50;99.90;;;;;;4964592;28;20380;-81
2023/03/17 05:08:27;;;;;;;0.43;0.43;;;6.50;99.90;;;;;;4948557;28;20483;-81
2023/03/17 05:10:54;;;;;;;0.40;0.40;;;6.50;99.90;;;;;;4951108;28;20043;-82
2023/03/17 05:13:20;;;;;;;0.47;0.47;;;6.60;99.90;;;;;;4950292;28;20085;-82
2023/03/17 05:15:47;;;;;;;0.40;0.40;;;6.60;99.90;;;;;;4938033;28;20070;-81
2023/03/17 05:18:14;;;;;;;5.13;2.45;;;6.60;99.90;;;;;;4950699;28;20184;-81
2023/03/17 05:20:40;;;;;;;0.73;0.70;;;6.60;99.90;;;;;;4967433;28;20349;-82
2023/03/17 05:23:05;;;;;;;;;;;6.60;99.90;;;;;;4980500;28;20064;-81
2023/03/17 05:25:31;;;;;;;0.50;0.50;;;6.60;99.90;;;;;;4949044;28;20355;-81
2023/03/17 05:27:57;;;;;;;0.30;0.30;;;6.60;99.90;;;;;;4965519;28;20035;-82
2023/03/17 05:30:24;;;;;;;;;;;6.60;99.90;;;;;;4949839;28;20535;-81
2023/03/17 05:32:50;;;;;;;0.50;0.50;;;6.60;99.90;;;;;;4976631;28;19960;-81
2023/03/17 05:35:16;;;;;;;0.70;0.55;;;6.70;99.90;;;;;;4965444;28;20051;-81
2023/03/17 05:37:42;;;;;;;;;;;6.70;99.90;;;;;;4965285;28;20464;-80
2023/03/17 05:40:09;;;;;;;0.70;0.70;;;6.70;99.90;;;;;;4964142;28;19926;-80
2023/03/17 05:42:35;;;;;;;1.65;0.93;;;7.10;99.90;;;;;;4957701;28;20051;-80
2023/03/17 05:45:01;;;;;;;0.60;0.60;;;6.80;99.90;;;;;;4963640;28;20042;-81
2023/03/17 05:47:27;;;;;;;;;;;6.80;99.90;;;;;;4946294;28;20443;-81
2023/03/17 05:49:52;;;;;;;0.50;0.50;;;6.90;99.90;;;;;;4961922;28;19917;-81
2023/03/17 05:52:18;;;;;;;0.47;0.47;;;6.90;99.90;;;;;;4960731;28;20043;-80
2023/03/17 05:54:47;;;;;;;0.50;0.50;;;7.00;99.90;;;;;;5025090;28;20109;-81
2023/03/17 05:57:15;;;;;;;0.40;0.40;;;7.10;99.90;;;;;;4960002;28;20054;-81
2023/03/17 05:59:41;;;;;;;0.77;0.77;;;7.10;99.90;;;;;;4964456;28;20049;-81
2023/03/17 06:02:08;;;;;;;0.38;0.38;;;7.20;99.90;;;;;;4961634;28;20086;-81
2023/03/17 06:04:34;;;;;;;0.40;0.40;;;7.20;99.90;;;;;;4960885;28;20042;-81
2023/03/17 06:07:00;;;;;;;0.50;0.50;;;7.20;99.90;;;;;;4964000;28;20053;-81
2023/03/17 06:09:25;;;;;;;1.15;1.15;;;7.20;99.90;;;;;;4969288;28;20047;-82
2023/03/17 06:11:51;;;;;;;0.50;0.50;;;7.30;99.90;;;;;;4946227;28;20077;-81
2023/03/17 06:14:17;;;;;;;0.60;0.60;;;7.30;99.90;;;;;;4959581;28;20043;-82
2023/03/17 06:16:43;;;;;;;;;;;7.40;99.90;;;;;;4929245;29;20133;-82
2023/03/17 06:19:09;;;;;;;0.63;0.63;;;7.40;99.90;;;;;;4946603;28;20006;-82
2023/03/17 06:21:35;;;;;;;0.47;0.47;;;7.40;99.90;;;;;;4959574;28;20051;-81
2023/03/17 06:24:01;;;;;;;0.85;0.85;;;7.40;99.90;;;;;;4960963;28;20459;-82
2023/03/17 06:26:26;;;;;;;0.50;0.50;;;7.50;99.90;;;;;;4962616;28;20074;-81
2023/03/17 06:28:52;;;;;;;0.70;0.70;;;7.50;99.90;;;;;;4938580;28;20043;-81
2023/03/17 06:31:18;;;;;;;0.73;0.73;;;7.50;99.90;;;;;;4949179;28;20062;-82
2023/03/17 06:33:44;;;;;;;1.60;1.55;;;7.60;99.90;;;;;;4990782;28;20100;-82
2023/03/17 06:36:09;;;;;;;0.50;0.50;;;7.60;99.90;;;;;;4950832;28;20047;-82
2023/03/17 06:38:35;;;;;;;0.40;0.40;;;7.60;99.90;;;;;;4966667;28;20053;-81
2023/03/17 06:41:02;;;;;;;0.50;0.50;;;7.70;99.90;;;;;;4947931;28;20051;-82
2023/03/17 06:43:27;;;;;;;0.50;0.50;;;7.70;99.90;;;;;;4960385;28;20079;-82
2023/03/17 06:45:54;;;;;;;3.97;3.60;;;7.80;99.90;;;;;;4966148;28;20541;-82
2023/03/17 06:48:19;;;;;;;;;;;7.80;99.90;;;;;;4966130;28;20053;-82
2023/03/17 06:50:47;;;;;;;11.55;1.67;;;7.80;99.90;;;;;;4969113;28;19922;-82
2023/03/17 06:53:13;;;;;;;0.50;0.50;;;7.80;99.90;;;;;;4947750;28;20089;-82
2023/03/17 06:55:40;;;;;;;0.50;0.50;;;7.80;99.90;;;;;;4966021;28;20078;-83
2023/03/17 06:58:08;;;;;;;0.82;0.75;;;7.80;99.90;;;;;;4947257;28;20539;-83
2023/03/17 07:00:33;;;;;;;0.40;0.40;;;7.80;99.90;;;;;;4953044;28;20094;-84
2023/03/17 07:02:59;;;;;;;0.47;0.47;;;7.70;99.90;;;;;;4965870;28;20082;-82
2023/03/17 07:05:25;;;;;;;0.40;0.40;;;7.70;99.90;;;;;;4965919;28;20396;-82
2023/03/17 07:07:51;;;;;;;0.68;0.68;;;7.80;99.90;;;;;;4967928;28;20059;-83
2023/03/17 07:10:17;;;;;;;0.60;0.60;;;7.80;99.90;;;;;;4965572;28;20053;-83
2023/03/17 07:12:44;;;;;;;0.50;0.50;;;7.80;99.90;;;;;;4958757;28;20043;-84
2023/03/17 07:15:11;;;;;;;0.50;0.50;;;7.90;99.90;;;;;;4969975;28;20042;-83
2023/03/17 07:17:37;;;;;;;0.50;0.50;;;7.90;99.90;;;;;;5000987;28;20427;-82
2023/03/17 07:20:05;;;;;;;0.35;0.35;;;8.00;99.90;;;;;;4969529;28;20384;-83
2023/03/17 07:22:31;;;;;;;0.40;0.40;;;8.00;99.90;;;;;;4977771;28;20035;-82
2023/03/17 07:24:57;;;;;;;0.40;0.40;;;8.10;99.90;;;;;;4968602;28;20153;-84
2023/03/17 07:27:25;;;;;;;0.40;0.40;;;8.20;99.90;;;;;;4969438;28;20499;-83
2023/03/17 07:29:51;;;;;;;0.80;0.80;;;8.20;99.90;;;;;;4954925;28;20394;-83
2023/03/17 07:32:17;;;;;;;0.50;0.50;;;8.30;99.90;;;;;;4949014;28;20745;-83
2023/03/17 07:34:43;;;;;;;0.50;0.50;;;8.40;99.90;;;;;;4969594;28;20047;-83
2023/03/17 07:37:09;;;;;;;0.50;0.50;;;8.40;99.90;;;;;;4948117;28;20046;-82
2023/03/17 07:39:35;;;;;;;;;;;8.50;99.90;;;;;;4968122;28;20130;-82
2023/03/17 07:42:01;;;;;;;0.47;0.47;;;8.70;99.90;;;;;;4967850;28;20071;-83
2023/03/17 07:44:27;;;;;;;;;;;8.80;99.90;;;;;;4951717;28;20050;-83
2023/03/17 07:46:53;;;;;;;0.60;0.60;;;9.00;99.90;;;;;;4949265;28;19926;-82
2023/03/17 07:49:20;;;;;;;0.32;0.32;;;9.10;99.90;;;;;;4958331;28;20492;-83
2023/03/17 07:51:45;;;;;;;;;;;9.30;99.90;;;;;;4968356;28;20062;-81
2023/03/17 07:54:12;;;;;;;0.40;0.40;;;9.50;99.90;;;;;;4969443;28;19932;-82
2023/03/17 07:56:39;;;;;;;0.43;0.43;;;9.60;99.90;;;;;;4962950;28;20061;-82
2023/03/17 07:59:07;;;;;;;0.60;0.60;;;9.80;99.90;;;;;;4967308;28;20265;-82
2023/03/17 08:01:33;;;;;;;0.77;0.70;;;9.80;99.90;;;;;;4969219;28;20050;-81
2023/03/17 08:03:59;;;;;;;1.15;1.15;;;9.80;99.90;;;;;;4957569;28;20497;-81
2023/03/17 08:06:25;;;;;;;0.52;0.52;;;9.90;99.90;;;;;;4960282;28;20063;-82
2023/03/17 08:08:53;;;;;;;0.40;0.40;;;9.80;99.90;;;;;;4945747;28;20420;-82
2023/03/17 08:11:19;;;;;;;0.52;0.52;;;9.80;99.90;;;;;;4960934;28;20523;-81
2023/03/17 08:13:45;;;;;;;;;;;9.90;99.90;;;;;;4933632;28;20046;-82
2023/03/17 08:16:11;;;;;;;0.63;0.63;;;9.90;99.90;;;;;;4943756;28;20355;-82
2023/03/17 08:18:38;;;;;;;1.55;1.45;;;10.10;99.90;;;;;;4965311;28;20054;-82
2023/03/17 08:21:04;;;;;;;0.40;0.40;;;10.10;99.90;;;;;;4963596;28;20039;-82
2023/03/17 08:23:31;;;;;;;0.60;0.60;;;10.20;99.90;;;;;;4962542;28;20043;-82
2023/03/17 08:26:02;;;;;;;0.50;0.50;;;10.20;99.90;;;;;;4992111;28;20047;-82
2023/03/17 08:28:28;;;;;;;0.60;0.60;;;10.20;99.90;;;;;;4961421;28;20121;-82
2023/03/17 08:30:53;;;;;;;0.30;0.30;;;10.30;99.90;;;;;;4980696;28;20038;-82
2023/03/17 08:33:20;;;;;;;0.60;0.60;;;10.30;99.90;;;;;;4975248;28;20503;-82
2023/03/17 08:35:47;;;;;;;0.43;0.43;;;10.30;99.90;;;;;;4964615;28;20046;-82
2023/03/17 08:38:12;;;;;;;;;;;10.20;99.90;;;;;;4964739;28;20036;-82
2023/03/17 08:40:39;;;;;;;0.25;0.25;;;10.20;99.90;;;;;;4964947;28;20954;-81
2023/03/17 08:43:06;;;;;;;0.60;0.60;;;10.20;99.90;;;;;;4964311;28;20035;-82
2023/03/17 08:45:32;;;;;;;0.50;0.50;;;10.20;99.90;;;;;;4958137;28;20043;-83
2023/03/17 08:47:58;;;;;;;;;;;10.20;99.90;;;;;;4985718;28;20051;-82
2023/03/17 08:50:24;;;;;;;0.75;0.75;;;10.20;99.90;;;;;;4965046;28;20325;-82
2023/03/17 08:52:51;;;;;;;;;;;10.30;99.90;;;;;;4964521;28;20069;-82
2023/03/17 08:55:17;;;;;;;;;;;10.30;99.90;;;;;;4962845;28;19932;-82
2023/03/17 08:57:44;;;;;;;0.40;0.40;;;10.30;99.90;;;;;;4949446;28;19925;-82
2023/03/17 09:00:12;;;;;;;0.63;0.50;;;10.40;99.90;;;;;;4946967;28;20096;-82
2023/03/17 09:02:41;;;;;;;1.20;1.20;;;10.50;99.90;;;;;;4934417;28;20080;-83
2023/03/17 09:05:12;;;;;;;0.47;0.47;;;10.50;99.90;;;;;;4954500;28;20062;-82
2023/03/17 09:07:39;;;;;;;0.28;0.28;;;10.60;99.90;;;;;;4965180;28;20054;-82
2023/03/17 09:10:06;;;;;;;0.50;0.50;;;10.70;99.90;;;;;;4979061;28;20047;-82
2023/03/17 09:12:32;;;;;;;2.33;1.10;;;10.90;99.90;;;;;;4963099;28;20479;-82
2023/03/17 09:14:58;;;;;;;0.40;0.40;;;10.90;99.90;;;;;;4964748;28;20169;-83
2023/03/17 09:17:24;;;;;;;0.43;0.43;;;11.00;99.90;;;;;;4948833;28;20503;-82
2023/03/17 09:19:50;;;;;;;0.40;0.40;;;11.00;99.90;;;;;;4983744;28;20129;-82
2023/03/17 09:22:20;;;;;;;0.47;0.47;;;11.10;99.90;;;;;;5032303;28;20252;-82
2023/03/17 09:24:45;;;;;;;0.68;0.60;;;11.20;99.90;;;;;;4963609;28;20097;-82
2023/03/17 09:27:12;;;;;;;0.50;0.50;;;11.20;99.90;;;;;;4965044;28;20467;-81
2023/03/17 09:29:37;;;;;;;0.32;0.32;;;11.30;99.90;;;;;;4968049;28;20145;-82
2023/03/17 09:32:03;;;;;;;0.57;0.57;;;11.20;99.90;;;;;;4963950;28;20129;-81
2023/03/17 09:34:30;;;;;;;0.30;0.30;;;11.20;99.90;;;;;;4957877;28;20454;-80
2023/03/17 09:36:56;;;;;;;0.93;0.77;;;11.30;99.90;;;;;;4969330;28;20046;-81
2023/03/17 09:39:23;;;;;;;0.50;0.50;;;11.30;99.90;;;;;;5038184;28;20181;-80
2023/03/17 09:42:00;;;;;;;1.55;1.45;;;11.40;99.90;;;;;;4948225;28;20157;-81
2023/03/17 09:44:50;;;;;;;0.40;0.40;;;11.50;99.90;;;;;;4965312;28;20039;-80
2023/03/17 09:47:41;;;;;;;0.35;0.35;;;11.50;99.90;;;;;;4963072;28;20081;-81
2023/03/17 09:50:27;;;;;;;0.50;0.43;;;11.50;99.90;;;;;;4962222;28;20043;-81
2023/03/17 09:52:55;;;;;;;0.57;0.57;;;11.50;99.90;;;;;;4969845;28;20043;-80
2023/03/17 09:55:28;;;;;;;0.45;0.45;;;11.60;99.90;;;;;;4963416;28;20119;-81
2023/03/17 09:57:59;;;;;;;0.60;0.60;;;11.60;99.90;;;;;;4966595;28;20348;-81
2023/03/17 10:00:28;;;;;;;0.25;0.25;;;11.70;99.90;;;;;;4948221;28;20052;-82
2023/03/17 10:02:57;;;;;;;0.50;0.50;;;11.80;99.90;;;;;;4965375;28;20127;-81
2023/03/17 10:05:29;;;;;;;0.30;0.30;;;11.90;99.90;;;;;;4967349;28;20452;-81
2023/03/17 10:08:13;;;;;;;0.40;0.40;;;11.90;99.90;;;;;;4966192;28;20051;-81
2023/03/17 10:10:41;;;;;;;0.43;0.43;;;11.90;99.90;;;;;;4971303;28;20058;-81
2023/03/17 10:13:41;;;;;;;0.38;0.38;;;11.90;99.90;;;;;;4965811;28;20419;-81
2023/03/17 10:16:25;;;;;;;0.60;0.52;;;11.90;99.90;;;;;;4967325;28;20146;-81
2023/03/17 10:18:57;;;;;;;0.40;0.40;;;12.10;99.90;;;;;;4965753;28;20046;-82
2023/03/17 10:21:31;;;;;;;0.32;0.32;;;12.30;99.90;;;;;;4970419;28;20134;-81
2023/03/17 10:23:58;;;;;;;0.55;0.55;;;12.60;99.90;;;;;;4961963;28;20063;-82
2023/03/17 10:26:40;;;;;;;0.70;0.70;;;12.80;99.90;;;;;;4960238;28;20822;-80
2023/03/17 10:29:21;;;;;;;0.47;0.47;;;12.90;99.90;;;;;;4964927;28;20114;-80
2023/03/17 10:31:48;;;;;;;1.58;1.48;;;12.90;99.90;;;;;;4968218;28;20051;-80
2023/03/17 10:34:24;;;;;;;0.40;0.40;;;12.90;99.90;;;;;;4978430;28;20066;-82
2023/03/17 10:37:04;;;;;;;0.35;0.35;;;12.80;99.90;;;;;;4967740;28;20500;-82
2023/03/17 10:39:30;;;;;;;0.35;0.35;;;12.90;99.90;;;;;;4972896;28;20051;-81
2023/03/17 10:42:07;;;;;;;;;;;13.00;99.90;;;;;;4968547;28;20050;-81
2023/03/17 10:44:48;;;;;;;0.50;0.50;;;13.20;99.90;;;;;;4969835;28;20386;-82
2023/03/17 10:47:25;;;;;;;0.52;0.52;;;13.30;99.90;;;;;;4963102;28;20084;-81
2023/03/17 10:49:51;;;;;;;0.68;0.68;;;13.50;99.90;;;;;;4961896;28;20051;-81
2023/03/17 10:52:24;;;;;;;;;;;13.70;99.90;;;;;;4946687;28;20043;-80
2023/03/17 10:54:50;;;;;;;0.40;0.40;;;13.80;99.90;;;;;;4966176;28;19922;-82
2023/03/17 10:57:17;;;;;;;0.40;0.40;;;13.90;99.90;;;;;;4968745;28;20373;-80
2023/03/17 10:59:49;;;;;;;1.17;1.17;;;14.00;99.90;;;;;;4972235;28;20435;-82
2023/03/17 11:02:34;;;;;;;0.52;0.52;;;14.10;99.90;;;;;;4985110;28;20526;-82
2023/03/17 11:05:08;;;;;;;2.15;0.63;;;14.30;99.90;;;;;;4964480;28;20075;-81
2023/03/17 11:07:37;;;;;;;0.50;0.40;;;14.40;99.90;;;;;;4968659;28;20054;-80
2023/03/17 11:10:16;;;;;;;0.80;0.80;;;14.50;99.90;;;;;;4965443;28;20051;-81
2023/03/17 11:12:42;;;;;;;0.35;0.35;;;14.60;99.90;;;;;;4964058;28;20081;-80
2023/03/17 11:15:16;;;;;;;1.80;0.68;;;14.60;99.90;;;;;;4967506;28;20051;-81
2023/03/17 11:18:00;;;;;;;0.40;0.40;;;14.70;99.90;;;;;;4962925;28;20051;-81
2023/03/17 11:20:37;;;;;;;0.60;0.60;;;14.70;99.90;;;;;;4949975;28;20045;-79
2023/03/17 11:23:28;;;;;;;0.50;0.50;;;14.70;99.90;;;;;;4960074;28;20042;-80
2023/03/17 11:26:05;;;;;;;0.55;0.55;;;14.80;99.90;;;;;;4963390;28;20043;-81
2023/03/17 11:28:38;;;;;;;0.98;0.98;;;14.90;99.90;;;;;;4951842;28;20059;-80
2023/03/17 11:31:15;;;;;;;0.40;0.40;;;14.90;99.90;;;;;;4973048;28;20471;-80
2023/03/17 11:33:53;;;;;;;0.93;0.93;;;15.00;99.90;;;;;;4978433;28;20054;-81
2023/03/17 11:36:49;;;;;;;1.00;1.00;;;15.10;99.90;;;;;;4965941;28;20125;-82
2023/03/17 11:39:39;;;;;;;0.40;0.40;;;15.20;99.90;;;;;;4974861;28;20094;-79
2023/03/17 11:42:44;;;;;;;0.65;0.65;;;15.30;99.90;;;;;;4944355;28;20047;-81
2023/03/17 11:45:29;;;;;;;0.65;0.65;;;15.40;99.90;;;;;;4978754;28;20051;-81
2023/03/17 11:48:02;;;;;;;1.10;1.02;;;15.40;99.90;;;;;;4965673;28;20046;-82
2023/03/17 11:50:51;;;;;;;1.83;1.67;;;15.50;99.90;;;;;;4961970;28;20082;-81
2023/03/17 11:53:27;;;;;;;0.60;0.60;;;15.50;99.90;;;;;;4964465;28;20042;-81
2023/03/17 11:55:56;;;;;;;1.00;1.00;;;15.60;99.90;;;;;;4976580;28;20047;-82
2023/03/17 11:58:29;;;;;;;1.13;0.73;;;15.60;99.90;;;;;;4948600;28;20491;-81
2023/03/17 12:00:59;;;;;;;1.20;1.15;;;15.70;99.90;;;;;;4964288;28;20577;-81
2023/03/17 12:03:31;;;;;;;0.85;0.85;;;15.70;99.90;;;;;;4951935;28;20053;-81
2023/03/17 12:06:04;;;;;;;0.95;0.90;;;15.70;99.90;;;;;;4968660;28;20141;-80
2023/03/17 12:09:11;;;;;;;0.60;0.60;;;15.70;99.90;;;;;;4969891;28;20552;-81
2023/03/17 12:11:40;;;;;;;0.68;0.50;;;15.70;99.90;;;;;;4963460;28;20424;-82
2023/03/17 12:14:13;;;;;;;0.82;0.82;;;15.80;99.90;;;;;;4965984;28;20092;-81
2023/03/17 12:17:05;;;;;;;2.22;1.73;;;15.80;99.90;;;;;;4972722;28;20121;-82
2023/03/17 12:19:57;;;;;;;0.50;0.50;;;15.80;99.90;;;;;;4964599;28;20077;-82
2023/03/17 12:22:49;;;;;;;0.40;0.40;;;15.90;99.90;;;;;;4959690;28;20525;-81
2023/03/17 12:25:31;;;;;;;0.30;0.30;;;15.90;99.90;;;;;;4965242;28;20070;-81
2023/03/17 12:28:11;;;;;;;0.40;0.40;;;15.90;99.90;;;;;;4955649;28;20043;-80
2023/03/17 12:30:37;;;;;;;0.57;0.57;;;16.00;99.90;;;;;;4965454;28;20161;-81
2023/03/17 12:33:14;;;;;;;0.32;0.32;;;16.10;99.90;;;;;;4965429;28;20051;-81
2023/03/17 12:35:40;;;;;;;0.88;0.80;;;16.00;99.90;;;;;;4967140;28;20387;-81
2023/03/17 12:38:29;;;;;;;1.23;1.20;;;16.10;99.90;;;;;;4933037;28;20050;-80
2023/03/17 12:41:00;;;;;;;2.22;2.05;;;16.10;99.90;;;;;;4967348;28;20054;-81
2023/03/17 12:43:43;;;;;;;1.15;1.15;;;16.30;99.90;;;;;;4969464;28;20046;-82
2023/03/17 12:46:44;;;;;;;0.82;0.82;;;16.50;99.90;;;;;;4967985;28;20063;-81
2023/03/17 12:49:29;;;;;;;0.82;0.82;;;16.50;99.90;;;;;;4966590;28;20058;-81
2023/03/17 12:52:12;;;;;;;1.23;1.10;;;16.50;99.90;;;;;;4963337;28;20113;-81
2023/03/17 12:54:43;;;;;;;1.20;0.80;;;16.60;99.90;;;;;;4965444;28;20168;-81
2023/03/17 12:57:36;;;;;;;1.55;0.93;;;16.60;99.90;;;;;;4958065;28;20051;-80
2023/03/17 13:00:27;;;;;;;0.45;0.45;;;16.70;99.90;;;;;;4968395;28;20365;-80
2023/03/17 13:03:20;;;;;;;0.22;0.22;;;16.80;99.90;;;;;;4965758;28;20059;-80
2023/03/17 13:05:51;;;;;;;1.27;0.88;;;17.00;99.90;;;;;;4954513;28;20111;-80
2023/03/17 13:08:24;;;;;;;1.88;0.90;;;17.10;99.90;;;;;;4958384;28;20100;-81
2023/03/17 13:10:50;;;;;;;1.40;1.30;;;17.20;99.90;;;;;;4966034;28;20138;-80
2023/03/17 13:13:35;;;;;;;0.43;0.43;;;17.30;99.90;;;;;;4962184;28;20169;-80